createdAt,value
2022-10-01T00:02:14.605Z,99406.59
2022-10-01T00:04:43.765Z,99402.69
2022-10-01T00:07:15.419Z,99414.78
2022-10-01T00:09:44.867Z,99408.44
2022-10-01T00:12:16.754Z,99415.50
2022-10-01T00:14:45.933Z,99418.97
2022-10-01T00:17:15.093Z,99429.22
2022-10-01T00:19:44.255Z,99426.38
2022-10-01T00:22:14.792Z,99428.47
2022-10-01T00:24:44.242Z,99442.16
2022-10-01T00:27:13.733Z,99444.50
2022-10-01T00:29:45.434Z,99422.19
2022-10-01T00:32:15.543Z,99438.00
2022-10-01T00:34:45.120Z,99445.09
2022-10-01T00:37:15.656Z,99464.19
2022-10-01T00:39:45.346Z,99443.69
2022-10-01T00:42:20.431Z,99447.16
2022-10-01T00:44:51.058Z,99441.41
2022-10-01T00:47:28.362Z,99441.03
2022-10-01T00:50:05.956Z,99442.94
2022-10-01T00:52:40.337Z,99450.66
2022-10-01T00:55:13.354Z,99456.94
2022-10-01T00:57:45.285Z,99450.66
2022-10-01T01:00:16.078Z,99456.06
2022-10-01T01:02:45.321Z,99459.97
2022-10-01T01:05:15.123Z,99461.28
2022-10-01T01:07:49.638Z,99457.06
2022-10-01T01:10:28.741Z,99470.78
2022-10-01T01:13:12.586Z,99464.50
2022-10-01T01:15:48.445Z,99479.16
2022-10-01T01:18:24.283Z,99479.94
2022-10-01T01:21:21.820Z,99475.59
2022-10-01T01:24:38.594Z,99492.31
2022-10-01T01:27:38.647Z,99487.38
2022-10-01T01:30:12.840Z,99499.81
2022-10-01T01:32:51.545Z,99479.22
2022-10-01T01:35:30.028Z,99485.56
2022-10-01T01:38:03.318Z,99498.44
2022-10-01T01:40:36.894Z,99492.38
2022-10-01T01:43:11.701Z,99486.66
2022-10-01T01:45:44.349Z,99496.91
2022-10-01T01:48:14.208Z,99494.59
2022-10-01T01:50:58.294Z,99498.94
2022-10-01T01:53:27.514Z,99509.28
2022-10-01T01:55:57.040Z,99510.28
2022-10-01T01:58:26.526Z,99521.59
2022-10-01T02:00:57.581Z,99531.31
2022-10-01T02:03:29.519Z,99520.06
2022-10-01T02:06:12.281Z,99521.88
2022-10-01T02:08:49.913Z,99527.50
2022-10-01T02:11:27.207Z,99531.25
2022-10-01T02:14:12.610Z,99534.44
2022-10-01T02:16:50.162Z,99522.44
2022-10-01T02:19:29.630Z,99532.69
2022-10-01T02:22:03.659Z,99512.03
2022-10-01T02:24:41.509Z,99549.06
2022-10-01T02:27:16.745Z,99543.84
2022-10-01T02:29:47.525Z,99548.38
2022-10-01T02:32:19.729Z,99555.25
2022-10-01T02:34:51.872Z,99550.88
2022-10-01T02:37:25.732Z,99548.13
2022-10-01T02:39:58.223Z,99557.56
2022-10-01T02:42:30.976Z,99565.03
2022-10-01T02:45:02.773Z,99560.13
2022-10-01T02:47:38.426Z,99571.03
2022-10-01T02:50:09.935Z,99551.22
2022-10-01T02:52:47.287Z,99558.81
2022-10-01T02:55:20.685Z,99559.59
2022-10-01T02:57:49.011Z,99559.75
2022-10-01T03:00:21.779Z,99564.44
2022-10-01T03:02:52.639Z,99555.03
2022-10-01T03:05:23.112Z,99553.97
2022-10-01T03:07:52.712Z,99541.25
2022-10-01T03:10:21.959Z,99550.06
2022-10-01T03:12:51.121Z,99533.00
2022-10-01T03:15:21.111Z,99555.00
2022-10-01T03:17:54.436Z,99557.19
2022-10-01T03:20:24.345Z,99559.50
2022-10-01T03:22:53.636Z,99562.69
2022-10-01T03:25:22.749Z,99577.09
2022-10-01T03:27:53.825Z,99578.81
2022-10-01T03:30:23.365Z,99580.78
2022-10-01T03:32:53.937Z,99573.44
2022-10-01T03:35:23.670Z,99573.69
2022-10-01T03:37:53.124Z,99593.63
2022-10-01T03:40:22.269Z,99590.59
2022-10-01T03:42:51.421Z,99593.25
2022-10-01T03:45:20.608Z,99588.47
2022-10-01T03:47:54.775Z,99600.72
2022-10-01T03:50:24.081Z,99595.56
2022-10-01T03:52:53.282Z,99596.41
2022-10-01T03:55:22.402Z,99588.91
2022-10-01T03:57:51.493Z,99602.22
2022-10-01T04:00:20.671Z,99607.97
2022-10-01T04:02:49.856Z,99609.94
2022-10-01T04:05:20.404Z,99614.69
2022-10-01T04:07:50.057Z,99616.38
2022-10-01T04:10:19.266Z,99615.50
2022-10-01T04:12:48.391Z,99617.38
2022-10-01T04:15:17.855Z,99617.75
2022-10-01T04:17:46.956Z,99618.53
2022-10-01T04:20:16.625Z,99616.97
2022-10-01T04:22:47.419Z,99621.56
2022-10-01T04:25:16.701Z,99620.00
2022-10-01T04:27:59.795Z,99624.50
2022-10-01T04:30:31.989Z,99613.88
2022-10-01T04:33:01.618Z,99626.81
2022-10-01T04:35:31.742Z,99634.78
2022-10-01T04:38:04.886Z,99626.47
2022-10-01T04:40:36.701Z,99627.63
2022-10-01T04:43:09.711Z,99644.97
2022-10-01T04:45:39.241Z,99659.50
2022-10-01T04:48:08.392Z,99656.41
2022-10-01T04:50:38.283Z,99662.25
2022-10-01T04:53:08.824Z,99663.69
2022-10-01T04:55:38.388Z,99657.47
2022-10-01T04:58:07.529Z,99675.00
2022-10-01T05:00:36.835Z,99671.81
2022-10-01T05:03:06.094Z,99663.84
2022-10-01T05:05:35.307Z,99668.19
2022-10-01T05:08:04.448Z,99671.47
2022-10-01T05:10:35.629Z,99668.69
2022-10-01T05:13:04.982Z,99676.25
2022-10-01T05:15:35.809Z,99664.28
2022-10-01T05:18:05.202Z,99674.38
2022-10-01T05:20:34.679Z,99684.91
2022-10-01T05:23:03.767Z,99684.47
2022-10-01T05:25:34.289Z,99686.78
2022-10-01T05:28:05.933Z,99685.75
2022-10-01T05:30:35.892Z,99678.09
2022-10-01T05:33:06.612Z,99675.53
2022-10-01T05:35:35.784Z,99690.41
2022-10-01T05:38:05.038Z,99686.88
2022-10-01T05:40:35.642Z,99699.38
2022-10-01T05:43:05.552Z,99699.03
2022-10-01T05:45:35.927Z,99694.38
2022-10-01T05:48:08.003Z,99688.22
2022-10-01T05:50:41.141Z,99692.38
2022-10-01T05:53:14.082Z,99708.22
2022-10-01T05:55:45.120Z,99719.91
2022-10-01T05:58:15.684Z,99710.88
2022-10-01T06:00:45.355Z,99734.38
2022-10-01T06:03:15.323Z,99721.00
2022-10-01T06:05:46.271Z,99730.84
2022-10-01T06:08:15.863Z,99709.88
2022-10-01T06:10:47.277Z,99735.28
2022-10-01T06:13:18.005Z,99720.00
2022-10-01T06:15:47.864Z,99713.13
2022-10-01T06:18:16.953Z,99751.56
2022-10-01T06:20:46.116Z,99748.72
2022-10-01T06:23:16.130Z,99737.94
2022-10-01T06:25:47.501Z,99747.06
2022-10-01T06:28:16.701Z,99751.84
2022-10-01T06:30:46.769Z,99750.69
2022-10-01T06:33:18.099Z,99764.59
2022-10-01T06:35:49.448Z,99769.72
2022-10-01T06:38:21.060Z,99749.09
2022-10-01T06:40:55.793Z,99788.72
2022-10-01T06:43:26.209Z,99776.56
2022-10-01T06:45:55.762Z,99786.22
2022-10-01T06:48:25.186Z,99787.41
2022-10-01T06:50:56.768Z,99754.59
2022-10-01T06:53:26.567Z,99785.53
2022-10-01T06:55:57.467Z,99778.41
2022-10-01T06:58:27.438Z,99792.31
2022-10-01T07:01:01.622Z,99796.66
2022-10-01T07:03:32.211Z,99797.66
2022-10-01T07:06:08.046Z,99788.34
2022-10-01T07:08:37.191Z,99793.59
2022-10-01T07:11:07.865Z,99800.78
2022-10-01T07:13:37.165Z,99806.25
2022-10-01T07:16:07.023Z,99812.91
2022-10-01T07:18:36.505Z,99817.84
2022-10-01T07:21:05.833Z,99817.44
2022-10-01T07:23:35.045Z,99804.13
2022-10-01T07:26:08.914Z,99818.94
2022-10-01T07:28:38.043Z,99825.97
2022-10-01T07:31:11.511Z,99812.25
2022-10-01T07:33:41.859Z,99826.03
2022-10-01T07:36:13.687Z,99821.09
2022-10-01T07:38:45.152Z,99829.81
2022-10-01T07:41:17.506Z,99849.75
2022-10-01T07:43:49.949Z,99844.97
2022-10-01T07:46:19.221Z,99852.28
2022-10-01T07:48:50.302Z,99846.56
2022-10-01T07:51:19.457Z,99852.28
2022-10-01T07:53:48.686Z,99849.59
2022-10-01T07:56:19.383Z,99863.94
2022-10-01T07:58:48.599Z,99862.53
2022-10-01T08:01:18.075Z,99858.63
2022-10-01T08:03:50.036Z,99849.31
2022-10-01T08:06:25.206Z,99852.19
2022-10-01T08:08:54.842Z,99851.78
2022-10-01T08:11:25.358Z,99872.53
2022-10-01T08:13:56.060Z,99868.72
2022-10-01T08:16:29.178Z,99870.09
2022-10-01T08:18:58.414Z,99881.06
2022-10-01T08:21:29.528Z,99886.78
2022-10-01T08:23:58.691Z,99880.47
2022-10-01T08:26:29.525Z,99886.78
2022-10-01T08:29:00.222Z,99888.50
2022-10-01T08:31:29.462Z,99884.94
2022-10-01T08:33:58.891Z,99901.91
2022-10-01T08:36:28.080Z,99896.31
2022-10-01T08:38:57.586Z,99912.97
2022-10-01T08:41:44.870Z,99912.09
2022-10-01T08:44:22.862Z,99934.28
2022-10-01T08:46:53.394Z,99941.03
2022-10-01T08:49:27.758Z,99944.03
2022-10-01T08:52:04.444Z,99922.22
2022-10-01T08:54:41.488Z,99937.03
2022-10-01T08:57:19.061Z,99942.59
2022-10-01T08:59:53.245Z,99951.22
2022-10-01T09:02:26.576Z,99963.31
2022-10-01T09:05:01.505Z,99955.88
2022-10-01T09:07:56.674Z,99961.06
2022-10-01T09:10:44.360Z,99969.22
2022-10-01T09:13:49.946Z,99971.69
2022-10-01T09:16:26.687Z,99964.69
2022-10-01T09:19:14.059Z,99970.50
2022-10-01T09:21:57.230Z,99969.19
2022-10-01T09:24:42.220Z,99977.53
2022-10-01T09:27:19.184Z,99981.69
2022-10-01T09:29:53.670Z,99976.72
2022-10-01T09:32:28.036Z,99971.97
2022-10-01T09:35:04.507Z,99982.22
2022-10-01T09:37:45.791Z,99973.84
2022-10-01T09:40:22.708Z,99986.53
2022-10-01T09:42:52.953Z,99975.44
2022-10-01T09:45:25.941Z,99975.19
2022-10-01T09:47:59.894Z,99977.16
2022-10-01T09:50:40.020Z,99982.59
2022-10-01T09:53:18.947Z,99980.88
2022-10-01T09:55:55.654Z,99980.06
2022-10-01T09:58:27.672Z,99993.44
2022-10-01T10:00:59.993Z,99973.81
2022-10-01T10:03:32.363Z,99980.53
2022-10-01T10:06:02.355Z,99980.22
2022-10-01T10:08:34.957Z,99938.56
2022-10-01T10:11:06.657Z,99983.44
2022-10-01T10:13:39.322Z,99990.81
2022-10-01T10:16:20.605Z,99999.03
2022-10-01T10:18:52.659Z,100024.63
2022-10-01T10:21:25.971Z,100002.13
2022-10-01T10:23:57.478Z,100021.16
2022-10-01T10:26:32.694Z,100027.50
2022-10-01T10:29:04.383Z,100025.13
2022-10-01T10:31:43.070Z,100029.16
2022-10-01T10:34:17.973Z,100042.63
2022-10-01T10:36:48.051Z,100025.53
2022-10-01T10:39:24.574Z,100047.28
2022-10-01T10:41:56.181Z,100037.34
2022-10-01T10:44:30.338Z,100053.63
2022-10-01T10:47:04.330Z,100051.03
2022-10-01T10:49:36.828Z,100067.16
2022-10-01T10:52:23.816Z,100059.69
2022-10-01T10:54:53.944Z,100038.94
2022-10-01T10:57:28.976Z,100065.91
2022-10-01T11:00:00.727Z,100069.19
2022-10-01T11:02:34.005Z,100057.56
2022-10-01T11:05:16.669Z,100059.38
2022-10-01T11:07:48.295Z,100072.53
2022-10-01T11:10:35.069Z,100098.25
2022-10-01T11:13:34.882Z,100075.69
2022-10-01T11:16:44.592Z,100087.97
2022-10-01T11:19:43.444Z,100084.06
2022-10-01T11:22:34.090Z,100113.00
2022-10-01T11:25:25.821Z,100110.22
2022-10-01T11:28:08.480Z,100103.78
2022-10-01T11:30:48.648Z,100118.31
2022-10-01T11:33:30.529Z,100115.97
2022-10-01T11:36:06.449Z,100117.28
2022-10-01T11:39:02.830Z,100118.88
2022-10-01T11:41:38.347Z,100124.03
2022-10-01T11:44:15.802Z,100124.44
2022-10-01T11:46:58.619Z,100128.41
2022-10-01T11:49:51.779Z,100124.75
2022-10-01T11:52:34.605Z,100125.75
2022-10-01T11:55:35.062Z,100127.84
2022-10-01T11:58:32.092Z,100115.84
2022-10-01T12:01:10.605Z,100125.16
2022-10-01T12:03:56.256Z,100114.13
2022-10-01T12:06:34.204Z,100114.50
2022-10-01T12:09:15.337Z,100121.03
2022-10-01T12:11:52.852Z,100114.75
2022-10-01T12:14:31.481Z,100129.13
2022-10-01T12:17:12.312Z,100122.94
2022-10-01T12:19:47.925Z,100125.56
2022-10-01T12:22:25.765Z,100136.91
2022-10-01T12:24:56.439Z,100127.84
2022-10-01T12:27:51.096Z,100143.50
2022-10-01T12:30:23.215Z,100143.81
2022-10-01T12:33:10.010Z,100150.19
2022-10-01T12:35:58.631Z,100106.88
2022-10-01T12:38:55.588Z,100146.28
2022-10-01T12:41:42.198Z,100125.22
2022-10-01T12:44:41.713Z,100157.69
2022-10-01T12:47:26.256Z,100164.16
2022-10-01T12:50:05.792Z,100186.59
2022-10-01T12:52:47.270Z,100180.41
2022-10-01T12:55:39.415Z,100179.50
2022-10-01T12:58:23.010Z,100177.09
2022-10-01T13:01:00.171Z,100188.72
2022-10-01T13:04:11.188Z,100174.88
2022-10-01T13:06:56.089Z,100189.84
2022-10-01T13:09:36.309Z,100191.50
2022-10-01T13:12:25.932Z,100189.19
2022-10-01T13:14:58.285Z,100187.84
2022-10-01T13:17:35.552Z,100191.78
2022-10-01T13:20:15.708Z,100181.41
2022-10-01T13:22:55.659Z,100186.53
2022-10-01T13:25:33.841Z,100196.56
2022-10-01T13:28:12.113Z,100189.88
2022-10-01T13:30:59.197Z,100202.84
2022-10-01T13:33:31.726Z,100207.81
2022-10-01T13:36:02.455Z,100197.88
2022-10-01T13:38:43.956Z,100186.66
2022-10-01T13:41:22.337Z,100204.41
2022-10-01T13:43:58.301Z,100198.06
2022-10-01T13:46:33.672Z,100205.78
2022-10-01T13:49:08.486Z,100212.22
2022-10-01T13:51:39.235Z,100204.69
2022-10-01T13:54:18.703Z,100215.72
2022-10-01T13:56:48.031Z,100207.22
2022-10-01T13:59:34.814Z,100216.59
2022-10-01T14:02:29.563Z,100215.06
2022-10-01T14:05:16.395Z,100232.84
2022-10-01T14:07:50.423Z,100220.91
2022-10-01T14:10:20.938Z,100229.81
2022-10-01T14:13:08.362Z,100228.25
2022-10-01T14:16:03.505Z,100248.66
2022-10-01T14:18:39.708Z,100259.81
2022-10-01T14:21:28.722Z,100254.09
2022-10-01T14:24:07.771Z,100254.88
2022-10-01T14:26:47.530Z,100253.31
2022-10-01T14:29:35.832Z,100243.28
2022-10-01T14:32:23.307Z,100245.34
2022-10-01T14:35:12.629Z,100245.53
2022-10-01T14:37:42.394Z,100270.66
2022-10-01T14:40:20.066Z,100265.88
2022-10-01T14:42:59.993Z,100270.75
2022-10-01T14:45:30.276Z,100272.38
2022-10-01T14:48:04.347Z,100280.28
2022-10-01T14:50:39.253Z,100253.34
2022-10-01T14:53:14.600Z,100264.09
2022-10-01T14:55:43.938Z,100257.78
2022-10-01T14:58:25.882Z,100268.09
2022-10-01T15:00:57.685Z,100261.72
2022-10-01T15:03:26.957Z,100271.72
2022-10-01T15:06:12.583Z,100273.56
2022-10-01T15:08:47.765Z,100281.31
2022-10-01T15:11:23.238Z,100273.44
2022-10-01T15:13:55.637Z,100284.97
2022-10-01T15:16:29.409Z,100273.41
2022-10-01T15:19:02.675Z,100269.78
2022-10-01T15:21:39.656Z,100294.44
2022-10-01T15:24:20.760Z,100279.41
2022-10-01T15:26:52.103Z,100267.88
2022-10-01T15:29:21.603Z,100266.69
2022-10-01T15:31:53.344Z,100276.25
2022-10-01T15:34:26.486Z,100278.66
2022-10-01T15:36:57.983Z,100287.41
2022-10-01T15:39:33.810Z,100271.41
2022-10-01T15:42:08.817Z,100287.84
2022-10-01T15:44:46.350Z,100274.09
2022-10-01T15:47:34.006Z,100305.03
2022-10-01T15:50:21.132Z,100293.47
2022-10-01T15:53:02.227Z,100287.28
2022-10-01T15:55:43.924Z,100298.28
2022-10-01T15:58:20.959Z,100310.09
2022-10-01T16:01:03.687Z,100307.66
2022-10-01T16:03:36.140Z,100319.91
2022-10-01T16:06:08.901Z,100311.13
2022-10-01T16:08:53.969Z,100322.94
2022-10-01T16:11:29.447Z,100308.28
2022-10-01T16:14:39.450Z,100332.09
2022-10-01T16:17:32.253Z,100332.72
2022-10-01T16:20:24.462Z,100338.16
2022-10-01T16:23:13.687Z,100340.16
2022-10-01T16:25:47.546Z,100345.50
2022-10-01T16:28:28.756Z,100360.66
2022-10-01T16:30:58.326Z,100353.13
2022-10-01T16:33:28.622Z,100359.88
2022-10-01T16:36:12.345Z,100353.00
2022-10-01T16:38:41.589Z,100363.88
2022-10-01T16:41:13.950Z,100350.03
2022-10-01T16:43:43.494Z,100352.22
2022-10-01T16:46:12.684Z,100363.06
2022-10-01T16:48:41.985Z,100372.22
2022-10-01T16:51:11.720Z,100379.69
2022-10-01T16:53:42.833Z,100387.59
2022-10-01T16:56:13.768Z,100376.19
2022-10-01T16:58:43.334Z,100393.75
2022-10-01T17:01:16.578Z,100386.53
2022-10-01T17:03:45.843Z,100405.50
2022-10-01T17:06:15.020Z,100410.81
2022-10-01T17:08:44.289Z,100400.88
2022-10-01T17:11:14.832Z,100406.34
2022-10-01T17:13:43.969Z,100419.72
2022-10-01T17:16:13.163Z,100415.41
2022-10-01T17:18:43.797Z,100429.25
2022-10-01T17:21:13.183Z,100428.63
2022-10-01T17:23:42.565Z,100430.69
2022-10-01T17:26:11.759Z,100441.19
2022-10-01T17:28:42.384Z,100443.69
2022-10-01T17:31:17.590Z,100445.31
2022-10-01T17:33:47.231Z,100446.94
2022-10-01T17:36:16.472Z,100453.19
2022-10-01T17:38:45.858Z,100460.94
2022-10-01T17:41:15.056Z,100472.69
2022-10-01T17:43:45.605Z,100472.47
2022-10-01T17:46:14.947Z,100474.31
2022-10-01T17:48:44.086Z,100476.34
2022-10-01T17:51:15.844Z,100477.09
2022-10-01T17:53:45.382Z,100470.78
2022-10-01T17:56:17.712Z,100477.78
2022-10-01T17:58:48.511Z,100486.19
2022-10-01T18:01:21.999Z,100495.28
2022-10-01T18:03:56.119Z,100492.00
2022-10-01T18:06:26.449Z,100487.75
2022-10-01T18:08:56.657Z,100495.47
2022-10-01T18:11:27.593Z,100491.50
2022-10-01T18:13:59.782Z,100511.00
2022-10-01T18:16:29.408Z,100510.91
2022-10-01T18:21:51.169Z,100518.06
2022-10-01T18:24:20.437Z,100520.38
2022-10-01T18:26:49.837Z,100521.09
2022-10-01T18:29:23.236Z,100538.81
2022-10-01T18:32:02.128Z,100536.59
2022-10-01T18:34:38.263Z,100530.44
2022-10-01T18:37:17.234Z,100553.63
2022-10-01T18:39:51.179Z,100556.00
2022-10-01T18:42:28.492Z,100546.28
2022-10-01T18:45:03.018Z,100563.06
2022-10-01T18:47:43.637Z,100576.84
2022-10-01T18:50:33.072Z,100584.13
2022-10-01T18:53:39.166Z,100589.66
2022-10-01T18:56:31.193Z,100581.00
2022-10-01T18:59:58.477Z,100593.50
2022-10-01T19:02:53.528Z,100614.84
2022-10-01T19:06:11.906Z,100640.53
2022-10-01T19:09:03.223Z,100638.94
2022-10-01T19:11:46.388Z,100624.50
2022-10-01T19:14:47.259Z,100629.91
2022-10-01T19:17:32.190Z,100631.31
2022-10-01T19:20:17.157Z,100629.13
2022-10-01T19:23:04.367Z,100626.44
2022-10-01T19:25:41.908Z,100626.22
2022-10-01T19:28:30.462Z,100638.53
2022-10-01T19:31:10.808Z,100636.56
2022-10-01T19:33:48.131Z,100631.97
2022-10-01T19:36:26.280Z,100646.69
2022-10-01T19:39:02.175Z,100638.88
2022-10-01T19:41:40.501Z,100644.72
2022-10-01T19:44:16.554Z,100648.28
2022-10-01T19:46:47.736Z,100647.59
2022-10-01T19:49:22.462Z,100648.94
2022-10-01T19:51:58.837Z,100658.03
2022-10-01T19:54:33.391Z,100661.03
2022-10-01T19:57:07.723Z,100651.97
2022-10-01T19:59:36.976Z,100654.44
2022-10-01T20:02:16.083Z,100667.56
2022-10-01T20:04:52.407Z,100681.78
2022-10-01T20:07:30.013Z,100682.50
2022-10-01T20:10:14.854Z,100685.09
2022-10-01T20:12:54.535Z,100690.81
2022-10-01T20:15:35.755Z,100685.09
2022-10-01T20:18:17.609Z,100681.59
2022-10-01T20:21:12.605Z,100698.63
2022-10-01T20:23:51.825Z,100700.22
2022-10-01T20:26:32.268Z,100715.00
2022-10-01T20:29:22.153Z,100712.06
2022-10-01T20:32:03.349Z,100714.75
2022-10-01T20:34:46.169Z,100713.53
2022-10-01T20:37:37.129Z,100727.03
2022-10-01T20:40:19.018Z,100731.25
2022-10-01T20:42:51.918Z,100731.75
2022-10-01T20:45:25.666Z,100741.06
2022-10-01T20:48:00.172Z,100736.53
2022-10-01T20:50:35.540Z,100750.53
2022-10-01T20:53:32.711Z,100746.97
2022-10-01T20:56:10.255Z,100759.81
2022-10-01T20:58:47.355Z,100754.88
2022-10-01T21:01:21.676Z,100755.59
2022-10-01T21:03:58.002Z,100770.75
2022-10-01T21:06:35.513Z,100777.41
2022-10-01T21:09:15.341Z,100777.00
2022-10-01T21:11:53.539Z,100761.94
2022-10-01T21:14:27.596Z,100783.56
2022-10-01T21:17:31.027Z,100776.69
2022-10-01T21:20:29.797Z,100786.28
2022-10-01T21:23:14.483Z,100789.03
2022-10-01T21:25:58.194Z,100796.75
2022-10-01T21:28:48.520Z,100791.09
2022-10-01T21:31:35.926Z,100783.38
2022-10-01T21:34:14.076Z,100811.88
2022-10-01T21:37:00.034Z,100805.41
2022-10-01T21:39:34.844Z,100809.66
2022-10-01T21:42:16.647Z,100831.59
2022-10-01T21:45:16.580Z,100819.66
2022-10-01T21:48:04.195Z,100829.06
2022-10-01T21:50:49.823Z,100837.56
2022-10-01T21:54:00.567Z,100838.84
2022-10-01T21:57:02.315Z,100838.84
2022-10-01T22:00:03.090Z,100840.47
2022-10-01T22:02:50.107Z,100851.81
2022-10-01T22:05:29.600Z,100845.44
2022-10-01T22:08:09.123Z,100867.72
2022-10-01T22:10:43.515Z,100865.16
2022-10-01T22:13:20.082Z,100877.78
2022-10-01T22:15:54.473Z,100885.38
2022-10-01T22:18:35.529Z,100878.19
2022-10-01T22:21:11.927Z,100889.47
2022-10-01T22:23:48.217Z,100885.63
2022-10-01T22:26:22.354Z,100886.59
2022-10-01T22:28:55.922Z,100896.91
2022-10-01T22:31:31.690Z,100901.44
2022-10-01T22:34:07.663Z,100914.84
2022-10-01T22:36:45.596Z,100906.66
2022-10-01T22:39:22.464Z,100926.50
2022-10-01T22:41:59.134Z,100923.59
2022-10-01T22:44:29.770Z,100920.50
2022-10-01T22:47:25.917Z,100917.94
2022-10-01T22:50:11.869Z,100916.47
2022-10-01T22:52:52.366Z,100934.94
2022-10-01T22:55:34.700Z,100927.81
2022-10-01T22:58:47.422Z,100937.50
2022-10-01T23:01:28.423Z,100943.03
2022-10-01T23:04:18.625Z,100943.75
2022-10-01T23:07:00.383Z,100940.69
2022-10-01T23:09:37.709Z,100947.28
2022-10-01T23:12:19.022Z,100945.38
2022-10-01T23:15:05.292Z,100950.38
2022-10-01T23:17:40.916Z,100942.78
2022-10-01T23:20:25.139Z,100952.81
2022-10-01T23:23:25.862Z,100937.75
2022-10-01T23:26:12.145Z,100945.84
2022-10-01T23:29:01.873Z,100952.78
2022-10-01T23:31:40.822Z,100946.81
2022-10-01T23:34:26.689Z,100958.09
2022-10-01T23:37:18.916Z,100958.97
2022-10-01T23:39:56.492Z,100957.13
2022-10-01T23:42:36.832Z,100956.72
2022-10-01T23:45:24.205Z,100964.81
2022-10-01T23:48:03.043Z,100979.84
2022-10-01T23:50:38.929Z,100976.28
2022-10-01T23:53:16.800Z,100981.72
2022-10-01T23:56:11.716Z,100979.22
2022-10-01T23:58:51.733Z,100974.78
